Time,TemperatureF,DewpointF,PressureIn,WindDirection,WindDirectionDegrees,WindSpeedMPH,WindSpeedGustMPH,Humidity,HourlyPrecipIn,Conditions,Clouds,dailyrainin,SoftwareType,DateUTC
2013-09-28 00:00:00,59.3,48.4,29.65,SSW,202,0.0,0.0,67,0.00,,,-99.99,VWS V12.07,2013-09-28 05:00:00,
2013-09-28 00:05:00,58.8,47.9,29.65,SSW,202,0.0,0.0,67,0.00,,,-99.99,VWS V12.07,2013-09-28 05:05:00,
2013-09-28 00:10:00,58.8,47.9,29.65,SSW,202,0.0,0.0,67,0.00,,,-99.99,VWS V12.07,2013-09-28 05:10:00,
2013-09-28 00:15:00,58.8,47.9,29.65,SSW,202,0.0,0.0,67,0.00,,,-99.99,VWS V12.07,2013-09-28 05:15:00,
2013-09-28 00:20:00,58.6,48.1,29.65,SSW,202,0.0,0.0,68,0.00,,,-99.99,VWS V12.07,2013-09-28 05:20:00,
2013-09-28 00:25:00,58.2,47.7,29.66,SSW,202,0.0,0.0,68,0.00,,,-99.99,VWS V12.07,2013-09-28 05:25:00,
2013-09-28 00:30:00,57.9,47.4,29.66,SSW,202,0.0,0.0,68,0.00,,,-99.99,VWS V12.07,2013-09-28 05:30:00,
2013-09-28 00:35:00,57.9,47.4,29.65,SSW,202,0.0,0.6,68,0.00,,,-99.99,VWS V12.07,2013-09-28 05:35:00,
2013-09-28 00:40:00,57.5,47.0,29.65,SSW,202,0.0,0.6,68,0.00,,,-99.99,VWS V12.07,2013-09-28 05:40:00,
2013-09-28 00:45:00,57.3,46.8,29.65,SSW,202,0.0,0.6,68,0.00,,,-99.99,VWS V12.07,2013-09-28 05:45:00,
2013-09-28 00:50:00,57.2,46.8,29.65,SSW,202,0.0,2.0,68,0.00,,,-99.99,VWS V12.07,2013-09-28 05:50:00,
2013-09-28 00:55:00,57.0,46.6,29.65,SSW,202,0.0,2.0,68,0.00,,,-99.99,VWS V12.07,2013-09-28 05:55:00,
2013-09-28 01:00:00,56.8,46.4,29.65,SSW,202,0.0,2.0,68,0.00,,,-99.99,VWS V12.07,2013-09-28 06:00:00,
2013-09-28 01:05:00,56.8,46.4,29.65,SSW,202,0.0,0.0,68,0.00,,,-99.99,VWS V12.07,2013-09-28 06:05:00,
2013-09-28 01:10:00,56.4,46.4,29.65,SSW,202,0.0,0.0,69,0.00,,,-99.99,VWS V12.07,2013-09-28 06:10:00,
2013-09-28 01:15:00,56.4,46.4,29.65,SSW,202,0.0,0.0,69,0.00,,,-99.99,VWS V12.07,2013-09-28 06:15:00,
2013-09-28 01:20:00,56.3,46.3,29.65,SSW,202,0.0,1.1,69,0.00,,,-99.99,VWS V12.07,2013-09-28 06:20:00,
2013-09-28 01:25:00,56.1,46.1,29.65,SSW,202,0.0,1.1,69,0.00,,,-99.99,VWS V12.07,2013-09-28 06:25:00,
2013-09-28 01:30:00,56.1,46.1,29.65,SSW,202,0.0,1.1,69,0.00,,,-99.99,VWS V12.07,2013-09-28 06:30:00,
2013-09-28 01:35:00,55.9,46.3,29.65,SSW,202,0.0,0.0,70,0.00,,,-99.99,VWS V12.07,2013-09-28 06:35:00,
2013-09-28 01:40:00,55.9,46.3,29.65,SSW,202,0.0,0.0,70,0.00,,,-99.99,VWS V12.07,2013-09-28 06:40:00,
2013-09-28 01:45:00,55.7,46.1,29.66,SSW,202,0.0,0.0,70,0.00,,,-99.99,VWS V12.07,2013-09-28 06:45:00,
2013-09-28 01:50:00,55.7,46.1,29.65,SSW,202,1.1,1.1,70,0.00,,,-99.99,VWS V12.07,2013-09-28 06:50:00,
2013-09-28 01:55:00,55.5,45.9,29.65,SSW,202,0.0,1.1,70,0.00,,,-99.99,VWS V12.07,2013-09-28 06:55:00,
2013-09-28 02:00:00,55.4,45.8,29.65,SSW,202,0.0,1.1,70,0.00,,,-99.99,VWS V12.07,2013-09-28 07:00:00,
2013-09-28 02:05:00,55.2,45.6,29.65,SSW,202,0.0,0.0,70,0.00,,,-99.99,VWS V12.07,2013-09-28 07:05:00,
2013-09-28 02:15:00,55.2,45.6,29.65,SSW,202,0.0,0.0,70,0.00,,,-99.99,VWS V12.07,2013-09-28 07:15:00,
2013-09-28 02:20:00,55.2,45.6,29.64,SSW,202,0.0,0.0,70,0.00,,,-99.99,VWS V12.07,2013-09-28 07:20:00,
2013-09-28 02:25:00,55.0,45.4,29.64,SSW,202,0.0,0.6,70,0.00,,,-99.99,VWS V12.07,2013-09-28 07:25:00,
2013-09-28 02:30:00,55.0,45.4,29.64,SSW,202,0.0,0.6,70,0.00,,,-99.99,VWS V12.07,2013-09-28 07:30:00,
2013-09-28 02:35:00,55.0,45.4,29.64,SSW,202,0.0,0.0,70,0.00,,,-99.99,VWS V12.07,2013-09-28 07:35:00,
2013-09-28 02:40:00,55.0,45.4,29.64,SSW,202,0.0,0.0,70,0.00,,,-99.99,VWS V12.07,2013-09-28 07:40:00,
2013-09-28 02:45:00,55.0,45.4,29.64,SSW,202,0.0,0.0,70,0.00,,,-99.99,VWS V12.07,2013-09-28 07:45:00,
2013-09-28 02:50:00,55.0,45.4,29.63,SSW,202,0.0,0.0,70,0.00,,,-99.99,VWS V12.07,2013-09-28 07:50:00,
2013-09-28 02:55:00,54.8,45.2,29.63,SSW,202,0.0,0.0,70,0.00,,,-99.99,VWS V12.07,2013-09-28 07:55:00,
2013-09-28 03:00:00,54.8,45.2,29.63,SSW,202,2.6,2.6,70,0.00,,,-99.99,VWS V12.07,2013-09-28 08:00:00,
2013-09-28 03:05:00,54.6,45.0,29.63,SSW,202,0.0,0.0,70,0.00,,,-99.99,VWS V12.07,2013-09-28 08:05:00,
2013-09-28 03:10:00,54.6,45.0,29.63,SSW,202,0.0,0.0,70,0.00,,,-99.99,VWS V12.07,2013-09-28 08:10:00,
2013-09-28 03:15:00,54.6,45.0,29.63,SSW,202,0.0,0.0,70,0.00,,,-99.99,VWS V12.07,2013-09-28 08:15:00,
2013-09-28 03:20:00,54.5,44.9,29.63,SSW,202,0.0,0.0,70,0.00,,,-99.99,VWS V12.07,2013-09-28 08:20:00,
2013-09-28 03:25:00,54.5,44.9,29.62,SSW,202,0.0,0.0,70,0.00,,,-99.99,VWS V12.07,2013-09-28 08:25:00,
2013-09-28 03:30:00,54.5,44.9,29.62,SSW,202,0.0,0.0,70,0.00,,,-99.99,VWS V12.07,2013-09-28 08:30:00,
2013-09-28 03:35:00,54.3,44.7,29.62,SSW,202,0.0,0.0,70,0.00,,,-99.99,VWS V12.07,2013-09-28 08:35:00,
2013-09-28 03:40:00,54.3,44.7,29.62,SSW,202,0.0,0.0,70,0.00,,,-99.99,VWS V12.07,2013-09-28 08:40:00,
2013-09-28 03:45:00,54.3,44.7,29.62,SSW,202,0.0,0.0,70,0.00,,,-99.99,VWS V12.07,2013-09-28 08:45:00,
2013-09-28 03:50:00,54.3,44.7,29.62,SSW,202,0.0,0.0,70,0.00,,,-99.99,VWS V12.07,2013-09-28 08:50:00,
2013-09-28 03:55:00,54.1,44.5,29.61,SSW,202,0.0,0.0,70,0.00,,,-99.99,VWS V12.07,2013-09-28 08:55:00,
2013-09-28 04:00:00,54.1,44.5,29.61,SW,225,0.0,0.0,70,0.00,,,-99.99,VWS V12.07,2013-09-28 09:00:00,
2013-09-28 04:05:00,53.9,44.3,29.61,SW,225,0.0,1.5,70,0.00,,,-99.99,VWS V12.07,2013-09-28 09:05:00,
2013-09-28 04:10:00,53.9,44.3,29.61,SW,225,0.0,1.5,70,0.00,,,-99.99,VWS V12.07,2013-09-28 09:10:00,
2013-09-28 04:15:00,53.9,44.3,29.61,SW,225,0.0,1.5,70,0.00,,,-99.99,VWS V12.07,2013-09-28 09:15:00,
2013-09-28 04:20:00,53.7,44.2,29.61,SW,225,0.0,0.0,70,0.00,,,-99.99,VWS V12.07,2013-09-28 09:20:00,
2013-09-28 04:25:00,53.7,44.2,29.61,SW,225,0.0,0.0,70,0.00,,,-99.99,VWS V12.07,2013-09-28 09:25:00,
2013-09-28 04:30:00,53.7,44.5,29.60,SW,225,0.0,0.0,71,0.00,,,-99.99,VWS V12.07,2013-09-28 09:30:00,
2013-09-28 04:35:00,53.7,44.5,29.60,SW,225,2.0,2.0,71,0.00,,,-99.99,VWS V12.07,2013-09-28 09:35:00,
2013-09-28 04:40:00,53.6,44.4,29.60,SW,225,0.0,2.0,71,0.00,,,-99.99,VWS V12.07,2013-09-28 09:40:00,
2013-09-28 04:45:00,53.6,44.4,29.60,SW,225,0.0,2.0,71,0.00,,,-99.99,VWS V12.07,2013-09-28 09:45:00,
2013-09-28 04:50:00,53.4,44.2,29.60,SW,225,0.0,2.0,71,0.00,,,-99.99,VWS V12.07,2013-09-28 09:50:00,
2013-09-28 04:55:00,53.4,44.2,29.60,SW,225,0.0,2.0,71,0.00,,,-99.99,VWS V12.07,2013-09-28 09:55:00,
2013-09-28 05:00:00,53.4,44.2,29.60,SW,225,0.0,2.0,71,0.00,,,-99.99,VWS V12.07,2013-09-28 10:00:00,
2013-09-28 05:05:00,53.2,44.0,29.60,SW,225,0.0,0.0,71,0.00,,,-99.99,VWS V12.07,2013-09-28 10:05:00,
2013-09-28 05:10:00,53.2,44.0,29.60,SW,225,0.0,0.0,71,0.00,,,-99.99,VWS V12.07,2013-09-28 10:10:00,
2013-09-28 05:15:00,53.2,44.0,29.59,SW,225,0.0,0.6,71,0.00,,,-99.99,VWS V12.07,2013-09-28 10:15:00,
2013-09-28 05:20:00,53.2,44.4,29.59,SW,225,0.0,0.0,72,0.00,,,-99.99,VWS V12.07,2013-09-28 10:20:00,
2013-09-28 05:25:00,52.8,44.0,29.59,SW,225,0.0,0.0,72,0.00,,,-99.99,VWS V12.07,2013-09-28 10:25:00,
2013-09-28 05:30:00,52.8,44.0,29.59,SW,225,0.0,0.0,72,0.00,,,-99.99,VWS V12.07,2013-09-28 10:30:00,
2013-09-28 05:35:00,52.8,44.0,29.59,SW,225,0.0,0.0,72,0.00,,,-99.99,VWS V12.07,2013-09-28 10:35:00,
2013-09-28 05:40:00,52.8,44.0,29.59,SW,225,1.1,1.1,72,0.00,,,-99.99,VWS V12.07,2013-09-28 10:40:00,
2013-09-28 05:50:00,52.7,44.3,29.58,SSW,202,0.0,0.0,73,0.00,,,-99.99,VWS V12.07,2013-09-28 10:50:00,
2013-09-28 05:55:00,52.7,44.3,29.58,SSW,202,0.0,0.0,73,0.00,,,-99.99,VWS V12.07,2013-09-28 10:55:00,
2013-09-28 06:00:00,52.7,44.3,29.58,SSW,202,0.0,0.0,73,0.00,,,-99.99,VWS V12.07,2013-09-28 11:00:00,
2013-09-28 06:05:00,52.7,44.3,29.58,SSW,202,0.0,0.0,73,0.00,,,-99.99,VWS V12.07,2013-09-28 11:05:00,
2013-09-28 06:10:00,52.7,44.3,29.58,SSW,202,0.0,0.0,73,0.00,,,-99.99,VWS V12.07,2013-09-28 11:10:00,
2013-09-28 06:15:00,52.7,44.3,29.58,SSW,202,0.0,0.0,73,0.00,,,-99.99,VWS V12.07,2013-09-28 11:15:00,
2013-09-28 06:20:00,52.7,44.7,29.57,SSW,202,0.0,0.0,74,0.00,,,-99.99,VWS V12.07,2013-09-28 11:20:00,
2013-09-28 06:25:00,52.7,44.7,29.57,SSW,202,0.0,0.0,74,0.00,,,-99.99,VWS V12.07,2013-09-28 11:25:00,
2013-09-28 06:30:00,52.7,44.7,29.57,SSW,202,0.0,0.0,74,0.00,,,-99.99,VWS V12.07,2013-09-28 11:30:00,
2013-09-28 06:35:00,52.5,44.5,29.57,SSW,202,0.0,0.0,74,0.00,,,-99.99,VWS V12.07,2013-09-28 11:35:00,
2013-09-28 06:40:00,52.5,44.5,29.57,SSW,202,0.0,0.0,74,0.00,,,-99.99,VWS V12.07,2013-09-28 11:40:00,
2013-09-28 06:45:00,52.5,44.5,29.57,SSW,202,0.0,0.0,74,0.00,,,-99.99,VWS V12.07,2013-09-28 11:45:00,
2013-09-28 06:50:00,52.5,44.5,29.57,SSW,202,0.0,0.0,74,0.00,,,-99.99,VWS V12.07,2013-09-28 11:50:00,
2013-09-28 06:55:00,52.5,44.5,29.57,SSW,202,0.0,0.0,74,0.00,,,-99.99,VWS V12.07,2013-09-28 11:55:00,
2013-09-28 07:00:00,52.5,44.8,29.56,SSW,202,0.0,0.0,75,0.00,,,-99.99,VWS V12.07,2013-09-28 12:00:00,
2013-09-28 07:05:00,52.3,44.6,29.57,SSW,202,0.0,0.0,75,0.00,,,-99.99,VWS V12.07,2013-09-28 12:05:00,
2013-09-28 07:10:00,52.3,44.6,29.56,SSW,202,0.0,0.0,75,0.00,,,-99.99,VWS V12.07,2013-09-28 12:10:00,
2013-09-28 07:15:00,52.3,44.6,29.56,SSW,202,0.0,0.0,75,0.00,,,-99.99,VWS V12.07,2013-09-28 12:15:00,
2013-09-28 07:20:00,52.3,44.6,29.56,SSW,202,0.0,0.0,75,0.00,,,-99.99,VWS V12.07,2013-09-28 12:20:00,
2013-09-28 07:25:00,52.3,44.6,29.56,SSW,202,0.0,0.0,75,0.00,,,-99.99,VWS V12.07,2013-09-28 12:25:00,
2013-09-28 07:30:00,52.3,44.6,29.57,SW,225,0.0,0.0,75,0.00,,,-99.99,VWS V12.07,2013-09-28 12:30:00,
2013-09-28 07:35:00,52.5,44.8,29.57,South,180,0.8,0.8,75,0.00,,,-99.99,VWS V12.07,2013-09-28 12:35:00,
2013-09-28 07:40:00,52.5,45.2,29.59,WSW,248,0.0,0.8,76,0.00,,,-99.99,VWS V12.07,2013-09-28 12:40:00,
2013-09-28 07:45:00,52.5,45.2,29.60,WSW,248,0.0,0.8,76,0.00,,,-99.99,VWS V12.07,2013-09-28 12:45:00,
2013-09-28 07:50:00,52.8,45.5,29.60,WSW,248,0.0,0.0,76,0.00,,,-99.99,VWS V12.07,2013-09-28 12:50:00,
2013-09-28 07:55:00,52.8,45.5,29.58,WSW,248,0.0,0.0,76,0.00,,,-99.99,VWS V12.07,2013-09-28 12:55:00,
2013-09-28 08:00:00,53.2,45.8,29.58,SSW,202,0.0,0.0,76,0.00,,,-99.99,VWS V12.07,2013-09-28 13:00:00,
2013-09-28 08:05:00,53.4,46.0,29.58,SSW,202,0.0,0.0,76,0.00,,,-99.99,VWS V12.07,2013-09-28 13:05:00,
2013-09-28 08:10:00,53.7,46.3,29.58,SSW,202,0.0,0.0,76,0.00,,,-99.99,VWS V12.07,2013-09-28 13:10:00,
2013-09-28 08:20:00,54.3,47.2,29.58,SSW,202,0.0,0.0,77,0.00,,,-99.99,VWS V12.07,2013-09-28 13:20:00,
2013-09-28 08:25:00,54.6,47.5,29.57,SSW,202,0.0,0.0,77,0.00,,,-99.99,VWS V12.07,2013-09-28 13:25:00,
2013-09-28 08:30:00,55.0,47.9,29.57,SSW,202,0.0,0.0,77,0.00,,,-99.99,VWS V12.07,2013-09-28 13:30:00,
2013-09-28 08:35:00,55.7,48.6,29.57,SSW,202,0.0,0.0,77,0.00,,,-99.99,VWS V12.07,2013-09-28 13:35:00,
2013-09-28 08:40:00,56.1,49.0,29.57,SSW,202,0.0,0.0,77,0.00,,,-99.99,VWS V12.07,2013-09-28 13:40:00,
2013-09-28 08:45:00,56.4,49.3,29.57,SSW,202,0.0,0.0,77,0.00,,,-99.99,VWS V12.07,2013-09-28 13:45:00,
2013-09-28 08:50:00,57.0,49.9,29.57,SSE,158,0.0,0.0,77,0.00,,,-99.99,VWS V12.07,2013-09-28 13:50:00,
2013-09-28 08:55:00,57.3,50.2,29.57,SSW,202,0.0,0.0,77,0.00,,,-99.99,VWS V12.07,2013-09-28 13:55:00,
2013-09-28 09:00:00,57.9,50.7,29.57,SSW,202,0.0,0.0,77,0.00,,,-99.99,VWS V12.07,2013-09-28 14:00:00,
2013-09-28 09:05:00,58.6,51.4,29.57,WSW,248,3.1,3.1,77,0.00,,,-99.99,VWS V12.07,2013-09-28 14:05:00,
2013-09-28 09:10:00,58.8,51.3,29.57,ENE,68,5.3,5.3,76,0.00,,,-99.99,VWS V12.07,2013-09-28 14:10:00,
2013-09-28 09:15:00,59.3,51.8,29.56,SW,225,0.4,5.3,76,0.00,,,-99.99,VWS V12.07,2013-09-28 14:15:00,
2013-09-28 09:20:00,60.0,52.4,29.56,SSW,202,0.0,3.5,76,0.00,,,-99.99,VWS V12.07,2013-09-28 14:20:00,
2013-09-28 09:25:00,60.4,52.8,29.56,SSW,202,3.1,3.5,76,0.00,,,-99.99,VWS V12.07,2013-09-28 14:25:00,
2013-09-28 09:30:00,60.6,52.6,29.56,WSW,248,0.0,3.5,75,0.00,,,-99.99,VWS V12.07,2013-09-28 14:30:00,
2013-09-28 09:35:00,61.1,53.1,29.55,WSW,248,0.0,0.8,75,0.00,,,-99.99,VWS V12.07,2013-09-28 14:35:00,
2013-09-28 09:40:00,61.5,53.5,29.55,WSW,248,0.0,4.0,75,0.00,,,-99.99,VWS V12.07,2013-09-28 14:40:00,
2013-09-28 09:45:00,61.8,53.4,29.55,SW,225,5.1,13.4,74,0.00,,,-99.99,VWS V12.07,2013-09-28 14:45:00,
2013-09-28 09:50:00,62.6,54.2,29.55,SSW,202,0.4,1.7,74,0.00,,,-99.99,VWS V12.07,2013-09-28 14:50:00,
2013-09-28 09:55:00,62.9,54.1,29.54,SSW,202,0.0,3.5,73,0.00,,,-99.99,VWS V12.07,2013-09-28 14:55:00,
2013-09-28 10:00:00,63.1,54.3,29.54,SW,225,4.9,4.9,73,0.00,,,-99.99,VWS V12.07,2013-09-28 15:00:00,
2013-09-28 10:05:00,63.5,54.3,29.54,SSW,202,0.2,5.3,72,0.00,,,-99.99,VWS V12.07,2013-09-28 15:05:00,
2013-09-28 10:10:00,63.8,54.6,29.53,SW,225,0.0,5.3,72,0.00,,,-99.99,VWS V12.07,2013-09-28 15:10:00,
2013-09-28 10:15:00,64.2,55.0,29.53,SSW,202,2.4,5.3,72,0.00,,,-99.99,VWS V12.07,2013-09-28 15:15:00,
2013-09-28 10:20:00,64.5,54.9,29.53,South,180,4.6,5.8,71,0.00,,,-99.99,VWS V12.07,2013-09-28 15:20:00,
2013-09-28 10:25:00,64.9,54.9,29.53,SSW,202,2.4,5.8,70,0.00,,,-99.99,VWS V12.07,2013-09-28 15:25:00,
2013-09-28 10:30:00,64.9,54.9,29.53,SSW,202,0.0,5.8,70,0.00,,,-99.99,VWS V12.07,2013-09-28 15:30:00,
2013-09-28 10:35:00,65.1,55.1,29.52,SW,225,6.0,6.0,70,0.00,,,-99.99,VWS V12.07,2013-09-28 15:35:00,
2013-09-28 10:40:00,65.3,55.3,29.51,SW,225,0.0,6.0,70,0.00,,,-99.99,VWS V12.07,2013-09-28 15:40:00,
2013-09-28 10:45:00,65.4,55.4,29.50,SSW,202,0.4,6.0,70,0.00,,,-99.99,VWS V12.07,2013-09-28 15:45:00,
2013-09-28 11:00:00,66.9,56.4,29.50,WSW,248,2.4,6.4,69,0.00,,,-99.99,VWS V12.07,2013-09-28 16:00:00,
2013-09-28 11:05:00,67.2,56.3,29.50,SSW,202,4.4,4.4,68,0.00,,,-99.99,VWS V12.07,2013-09-28 16:05:00,
2013-09-28 11:10:00,67.6,56.7,29.50,SE,135,1.1,4.4,68,0.00,,,-99.99,VWS V12.07,2013-09-28 16:10:00,
2013-09-28 11:15:00,67.8,56.9,29.49,SSW,202,0.0,4.4,68,0.00,,,-99.99,VWS V12.07,2013-09-28 16:15:00,
2013-09-28 11:20:00,67.8,56.5,29.49,South,180,1.3,2.6,67,0.00,,,-99.99,VWS V12.07,2013-09-28 16:20:00,
2013-09-28 11:25:00,67.8,56.5,29.48,SW,225,14.9,14.9,67,0.00,,,-99.99,VWS V12.07,2013-09-28 16:25:00,
2013-09-28 11:35:00,68.3,56.5,29.48,SSW,202,4.4,4.4,66,0.00,,,-99.99,VWS V12.07,2013-09-28 16:35:00,
2013-09-28 11:40:00,68.5,56.7,29.48,South,180,0.0,4.4,66,0.00,,,-99.99,VWS V12.07,2013-09-28 16:40:00,
2013-09-28 11:45:00,68.7,56.9,29.48,SSW,202,3.8,6.9,66,0.00,,,-99.99,VWS V12.07,2013-09-28 16:45:00,
2013-09-28 11:50:00,69.0,57.2,29.47,SSW,202,0.0,4.4,66,0.00,,,-99.99,VWS V12.07,2013-09-28 16:50:00,
2013-09-28 11:55:00,69.4,57.6,29.47,South,180,4.2,4.4,66,0.00,,,-99.99,VWS V12.07,2013-09-28 16:55:00,
2013-09-28 12:00:00,69.6,57.8,29.47,South,180,0.0,4.4,66,0.00,,,-99.99,VWS V12.07,2013-09-28 17:00:00,
2013-09-28 12:05:00,69.6,57.3,29.46,NNE,22,2.4,5.3,65,0.00,,,-99.99,VWS V12.07,2013-09-28 17:05:00,
2013-09-28 12:10:00,69.6,57.3,29.46,SSW,202,7.8,7.8,65,0.00,,,-99.99,VWS V12.07,2013-09-28 17:10:00,
2013-09-28 12:15:00,69.8,57.5,29.46,SW,225,0.0,7.8,65,0.00,,,-99.99,VWS V12.07,2013-09-28 17:15:00,
2013-09-28 12:20:00,70.1,57.8,29.46,SSE,158,1.1,1.3,65,0.00,,,-99.99,VWS V12.07,2013-09-28 17:20:00,
2013-09-28 12:25:00,70.3,57.6,29.45,SSW,202,0.0,5.3,64,0.00,,,-99.99,VWS V12.07,2013-09-28 17:25:00,
2013-09-28 12:30:00,70.3,57.6,29.45,South,180,3.5,5.3,64,0.00,,,-99.99,VWS V12.07,2013-09-28 17:30:00,
2013-09-28 12:35:00,70.5,57.8,29.44,SSW,202,0.0,5.5,64,0.00,,,-99.99,VWS V12.07,2013-09-28 17:35:00,
2013-09-28 12:40:00,70.7,57.9,29.44,NE,45,2.2,5.5,64,0.00,,,-99.99,VWS V12.07,2013-09-28 17:40:00,
2013-09-28 12:45:00,70.7,57.9,29.44,South,180,0.0,5.5,64,0.00,,,-99.99,VWS V12.07,2013-09-28 17:45:00,
2013-09-28 12:50:00,70.8,58.0,29.43,SSW,202,0.0,5.5,64,0.00,,,-99.99,VWS V12.07,2013-09-28 17:50:00,
2013-09-28 12:55:00,70.8,58.0,29.42,WSW,248,4.4,5.5,64,0.00,,,-99.99,VWS V12.07,2013-09-28 17:55:00,
2013-09-28 13:00:00,70.8,58.0,29.42,SSW,202,4.2,5.5,64,0.00,,,-99.99,VWS V12.07,2013-09-28 18:00:00,
2013-09-28 13:05:00,71.2,58.4,29.41,SW,225,0.0,1.7,64,0.00,,,-99.99,VWS V12.07,2013-09-28 18:05:00,
2013-09-28 13:10:00,71.2,58.4,29.41,SSW,202,2.0,2.0,64,0.00,,,-99.99,VWS V12.07,2013-09-28 18:10:00,
2013-09-28 13:15:00,71.4,58.6,29.41,South,180,2.2,2.6,64,0.00,,,-99.99,VWS V12.07,2013-09-28 18:15:00,
2013-09-28 13:20:00,71.7,58.5,29.41,SSW,202,0.8,6.0,63,0.00,,,-99.99,VWS V12.07,2013-09-28 18:20:00,
2013-09-28 13:25:00,71.7,58.5,29.40,SW,225,4.2,6.0,63,0.00,,,-99.99,VWS V12.07,2013-09-28 18:25:00,
2013-09-28 13:30:00,71.7,58.5,29.40,South,180,0.0,6.0,63,0.00,,,-99.99,VWS V12.07,2013-09-28 18:30:00,
2013-09-28 13:35:00,71.7,58.5,29.40,SW,225,6.4,7.3,63,0.00,,,-99.99,VWS V12.07,2013-09-28 18:35:00,
2013-09-28 13:40:00,71.7,58.5,29.40,SSW,202,0.0,7.3,63,0.00,,,-99.99,VWS V12.07,2013-09-28 18:40:00,
2013-09-28 13:45:00,71.7,58.5,29.40,ENE,68,0.0,7.3,63,0.00,,,-99.99,VWS V12.07,2013-09-28 18:45:00,
2013-09-28 13:50:00,71.7,58.5,29.39,SW,225,7.1,7.1,63,0.00,,,-99.99,VWS V12.07,2013-09-28 18:50:00,
2013-09-28 13:55:00,71.9,58.6,29.39,South,180,0.0,7.1,63,0.00,,,-99.99,VWS V12.07,2013-09-28 18:55:00,
2013-09-28 14:00:00,72.1,58.8,29.39,NE,45,0.0,7.8,63,0.00,,,-99.99,VWS V12.07,2013-09-28 19:00:00,
2013-09-28 14:05:00,72.1,58.4,29.39,NW,315,0.0,10.7,62,0.00,,,-99.99,VWS V12.07,2013-09-28 19:05:00,
2013-09-28 14:10:00,72.1,58.4,29.38,SSW,202,0.0,10.7,62,0.00,,,-99.99,VWS V12.07,2013-09-28 19:10:00,
2013-09-28 14:15:00,71.9,58.2,29.38,SSW,202,3.5,10.7,62,0.00,,,-99.99,VWS V12.07,2013-09-28 19:15:00,
2013-09-28 14:20:00,71.7,58.0,29.38,SSW,202,0.0,6.4,62,0.00,,,-99.99,VWS V12.07,2013-09-28 19:20:00,
2013-09-28 14:25:00,71.7,58.0,29.38,SSW,202,4.2,6.4,62,0.00,,,-99.99,VWS V12.07,2013-09-28 19:25:00,
2013-09-28 14:30:00,71.7,57.5,29.38,South,180,5.8,6.4,61,0.00,,,-99.99,VWS V12.07,2013-09-28 19:30:00,
2013-09-28 14:35:00,71.4,57.3,29.37,South,180,5.1,10.0,61,0.00,,,-99.99,VWS V12.07,2013-09-28 19:35:00,
2013-09-28 14:40:00,71.4,57.3,29.37,SW,225,3.5,10.0,61,0.00,,,-99.99,VWS V12.07,2013-09-28 19:40:00,
2013-09-28 14:45:00,71.2,57.1,29.37,SSW,202,0.0,10.0,61,0.00,,,-99.99,VWS V12.07,2013-09-28 19:45:00,
2013-09-28 14:50:00,71.4,57.3,29.36,SSW,202,2.6,8.0,61,0.00,,,-99.99,VWS V12.07,2013-09-28 19:50:00,
2013-09-28 14:55:00,71.4,57.3,29.36,SSW,202,0.0,14.7,61,0.00,,,-99.99,VWS V12.07,2013-09-28 19:55:00,
2013-09-28 15:00:00,71.4,57.3,29.37,SW,225,0.0,14.7,61,0.00,,,-99.99,VWS V12.07,2013-09-28 20:00:00,
2013-09-28 15:05:00,71.7,57.5,29.36,SSW,202,0.0,5.1,61,0.00,,,-99.99,VWS V12.07,2013-09-28 20:05:00,
2013-09-28 15:10:00,71.7,57.5,29.36,SSW,202,10.0,10.0,61,0.00,,,-99.99,VWS V12.07,2013-09-28 20:10:00,
2013-09-28 15:15:00,71.6,57.5,29.36,SSW,202,0.0,10.0,61,0.00,,,-99.99,VWS V12.07,2013-09-28 20:15:00,
2013-09-28 15:20:00,71.4,57.3,29.36,SSW,202,6.9,6.9,61,0.00,,,-99.99,VWS V12.07,2013-09-28 20:20:00,
2013-09-28 15:25:00,71.4,57.3,29.36,WNW,292,0.0,6.9,61,0.00,,,-99.99,VWS V12.07,2013-09-28 20:25:00,
2013-09-28 15:30:00,71.2,57.1,29.36,WSW,248,1.3,6.9,61,0.00,,,-99.99,VWS V12.07,2013-09-28 20:30:00,
2013-09-28 15:35:00,70.8,57.2,29.35,ENE,68,3.1,3.1,62,0.00,,,-99.99,VWS V12.07,2013-09-28 20:35:00,
2013-09-28 15:40:00,70.8,57.2,29.36,SSW,202,0.0,3.1,62,0.00,,,-99.99,VWS V12.07,2013-09-28 20:40:00,
2013-09-28 15:45:00,70.5,56.9,29.36,SW,225,0.0,5.3,62,0.00,,,-99.99,VWS V12.07,2013-09-28 20:45:00,
2013-09-28 15:50:00,70.3,56.7,29.36,SW,225,0.0,4.6,62,0.00,,,-99.99,VWS V12.07,2013-09-28 20:50:00,
2013-09-28 15:55:00,69.9,56.8,29.36,SSW,202,1.7,4.6,63,0.00,,,-99.99,VWS V12.07,2013-09-28 20:55:00,
2013-09-28 16:00:00,69.9,56.8,29.35,SSW,202,0.0,4.6,63,0.00,,,-99.99,VWS V12.07,2013-09-28 21:00:00,
2013-09-28 16:05:00,69.6,56.5,29.36,SSW,202,0.0,0.0,63,0.00,,,-99.99,VWS V12.07,2013-09-28 21:05:00,
2013-09-28 16:10:00,69.6,56.9,29.35,SW,225,0.0,0.0,64,0.00,,,-99.99,VWS V12.07,2013-09-28 21:10:00,
2013-09-28 16:15:00,69.4,56.7,29.36,SSE,158,0.0,7.6,64,0.00,,,-99.99,VWS V12.07,2013-09-28 21:15:00,
2013-09-28 16:20:00,69.0,56.3,29.37,WSW,248,8.7,8.7,64,0.00,,,-99.99,VWS V12.07,2013-09-28 21:20:00,
2013-09-28 16:25:00,68.9,56.7,29.36,WSW,248,4.2,8.7,65,0.00,,,-99.99,VWS V12.07,2013-09-28 21:25:00,
2013-09-28 16:35:00,68.7,56.5,29.37,SSW,202,3.1,3.1,65,0.00,,,-99.99,VWS V12.07,2013-09-28 21:35:00,
2013-09-28 16:40:00,68.5,56.7,29.36,WSW,248,5.8,6.9,66,0.00,,,-99.99,VWS V12.07,2013-09-28 21:40:00,
2013-09-28 16:45:00,68.1,56.7,29.36,SW,225,0.0,6.9,67,0.00,,,-99.99,VWS V12.07,2013-09-28 21:45:00,
2013-09-28 16:50:00,67.6,56.7,29.36,South,180,1.7,1.7,68,0.00,,,-99.99,VWS V12.07,2013-09-28 21:50:00,
2013-09-28 16:55:00,67.1,56.2,29.36,SW,225,0.0,1.7,68,0.00,,,-99.99,VWS V12.07,2013-09-28 21:55:00,
2013-09-28 17:00:00,66.3,55.8,29.36,SSW,202,0.0,4.6,69,0.00,,,-99.99,VWS V12.07,2013-09-28 22:00:00,
2013-09-28 17:05:00,66.0,56.0,29.36,SSW,202,0.0,5.8,70,0.00,,,-99.99,VWS V12.07,2013-09-28 22:05:00,
2013-09-28 17:10:00,65.4,55.8,29.36,SSW,202,1.7,5.8,71,0.00,,,-99.99,VWS V12.07,2013-09-28 22:10:00,
2013-09-28 17:15:00,65.1,55.9,29.36,SW,225,1.5,6.0,72,0.00,,,-99.99,VWS V12.07,2013-09-28 22:15:00,
2013-09-28 17:20:00,64.5,55.7,29.36,South,180,0.0,1.5,73,0.02,,,-99.99,VWS V12.07,2013-09-28 22:20:00,
2013-09-28 17:25:00,64.0,55.6,29.36,SSW,202,0.0,1.5,74,0.02,,,-99.99,VWS V12.07,2013-09-28 22:25:00,
2013-09-28 17:30:00,63.5,55.4,29.36,SSW,202,0.0,1.5,75,0.04,,,-99.99,VWS V12.07,2013-09-28 22:30:00,
2013-09-28 17:35:00,63.1,55.4,29.36,SSW,202,0.0,0.0,76,0.06,,,-99.99,VWS V12.07,2013-09-28 22:35:00,
2013-09-28 17:40:00,62.7,55.8,29.36,SW,225,0.0,0.0,78,0.06,,,-99.99,VWS V12.07,2013-09-28 22:40:00,
2013-09-28 17:45:00,62.6,55.7,29.37,SW,225,5.5,5.5,78,0.10,,,-99.99,VWS V12.07,2013-09-28 22:45:00,
2013-09-28 17:50:00,62.2,55.6,29.37,SSW,202,3.3,5.5,79,0.12,,,-99.99,VWS V12.07,2013-09-28 22:50:00,
2013-09-28 17:55:00,62.0,56.1,29.40,NNW,338,4.6,5.5,81,0.20,,,-99.99,VWS V12.07,2013-09-28 22:55:00,
2013-09-28 18:00:00,61.1,54.9,29.40,SSW,202,0.0,5.5,80,0.24,,,-99.99,VWS V12.07,2013-09-28 23:00:00,
2013-09-28 18:05:00,60.0,53.8,29.40,SW,225,0.0,9.6,80,0.26,,,-99.99,VWS V12.07,2013-09-28 23:05:00,
2013-09-28 18:10:00,59.3,53.1,29.40,WSW,248,1.1,9.6,80,0.26,,,-99.99,VWS V12.07,2013-09-28 23:10:00,
2013-09-28 18:15:00,58.8,52.7,29.41,SW,225,0.0,9.6,80,0.26,,,-99.99,VWS V12.07,2013-09-28 23:15:00,
2013-09-28 18:20:00,57.9,52.1,29.41,SW,225,0.0,0.0,81,0.24,,,-99.99,VWS V12.07,2013-09-28 23:20:00,
2013-09-28 18:25:00,57.3,51.5,29.42,NNE,22,0.0,0.0,81,0.22,,,-99.99,VWS V12.07,2013-09-28 23:25:00,
2013-09-28 18:30:00,57.0,51.6,29.42,WSW,248,5.3,5.3,82,0.22,,,-99.99,VWS V12.07,2013-09-28 23:30:00,
2013-09-28 18:35:00,56.4,51.0,29.42,WSW,248,0.0,0.0,82,0.22,,,-99.99,VWS V12.07,2013-09-28 23:35:00,
2013-09-28 18:40:00,56.3,50.9,29.42,West,270,0.0,0.0,82,0.22,,,-99.99,VWS V12.07,2013-09-28 23:40:00,
2013-09-28 18:45:00,55.9,50.8,29.42,SW,225,0.6,2.6,83,0.18,,,-99.99,VWS V12.07,2013-09-28 23:45:00,
2013-09-28 18:50:00,55.9,50.8,29.42,SSW,202,0.0,0.6,83,0.16,,,-99.99,VWS V12.07,2013-09-28 23:50:00,
2013-09-28 18:55:00,55.7,50.6,29.42,WSW,248,0.0,4.9,83,0.08,,,-99.99,VWS V12.07,2013-09-28 23:55:00,
2013-09-28 19:00:00,55.4,50.7,29.42,SW,225,0.0,4.9,84,0.06,,,-99.99,VWS V12.07,2013-09-29 00:00:00,
2013-09-28 19:05:00,55.2,50.5,29.42,NNW,338,0.0,0.6,84,0.06,,,-99.99,VWS V12.07,2013-09-29 00:05:00,
2013-09-28 19:10:00,55.0,50.3,29.43,South,180,3.3,3.3,84,0.06,,,-99.99,VWS V12.07,2013-09-29 00:10:00,
2013-09-28 19:15:00,54.6,49.9,29.43,WSW,248,0.0,3.5,84,0.06,,,-99.99,VWS V12.07,2013-09-29 00:15:00,
2013-09-28 19:20:00,54.6,49.9,29.44,SSW,202,0.0,0.2,84,0.08,,,-99.99,VWS V12.07,2013-09-29 00:20:00,
2013-09-28 19:25:00,54.3,49.6,29.44,SW,225,0.0,0.2,84,0.08,,,-99.99,VWS V12.07,2013-09-29 00:25:00,
2013-09-28 19:30:00,53.9,49.2,29.44,SW,225,0.0,1.7,84,0.08,,,-99.99,VWS V12.07,2013-09-29 00:30:00,
2013-09-28 19:35:00,53.7,49.0,29.44,SW,225,0.0,0.0,84,0.06,,,-99.99,VWS V12.07,2013-09-29 00:35:00,
2013-09-28 19:40:00,53.4,48.7,29.44,SW,225,0.0,0.0,84,0.06,,,-99.99,VWS V12.07,2013-09-29 00:40:00,
2013-09-28 19:45:00,53.0,48.3,29.44,West,270,0.0,0.0,84,0.04,,,-99.99,VWS V12.07,2013-09-29 00:45:00,
2013-09-28 19:50:00,52.7,48.3,29.45,WNW,292,0.0,0.0,85,0.02,,,-99.99,VWS V12.07,2013-09-29 00:50:00,
2013-09-28 19:55:00,52.5,48.1,29.46,WNW,292,0.0,0.0,85,0.02,,,-99.99,VWS V12.07,2013-09-29 00:55:00,
2013-09-28 20:00:00,52.3,47.9,29.46,NW,315,3.3,3.3,85,0.02,,,-99.99,VWS V12.07,2013-09-29 01:00:00,
2013-09-28 20:05:00,51.9,47.5,29.46,NW,315,0.0,3.3,85,0.02,,,-99.99,VWS V12.07,2013-09-29 01:05:00,
2013-09-28 20:10:00,51.9,47.5,29.47,WNW,292,0.0,3.3,85,0.02,,,-99.99,VWS V12.07,2013-09-29 01:10:00,
2013-09-28 20:15:00,51.6,47.2,29.47,WNW,292,0.0,3.3,85,0.02,,,-99.99,VWS V12.07,2013-09-29 01:15:00,
2013-09-28 20:20:00,51.6,47.2,29.46,West,270,0.0,0.0,85,0.00,,,-99.99,VWS V12.07,2013-09-29 01:20:00,
2013-09-28 20:25:00,51.6,47.6,29.46,WNW,292,0.0,0.0,86,0.00,,,-99.99,VWS V12.07,2013-09-29 01:25:00,
2013-09-28 20:35:00,51.2,47.2,29.46,WSW,248,0.0,0.0,86,0.00,,,-99.99,VWS V12.07,2013-09-29 01:35:00,
2013-09-28 20:40:00,51.0,46.7,29.45,WSW,248,0.0,0.0,85,0.00,,,-99.99,VWS V12.07,2013-09-29 01:40:00,
2013-09-28 20:45:00,51.0,46.7,29.45,WSW,248,0.0,0.0,85,0.00,,,-99.99,VWS V12.07,2013-09-29 01:45:00,
2013-09-28 20:50:00,50.9,46.6,29.46,WSW,248,0.0,0.0,85,0.00,,,-99.99,VWS V12.07,2013-09-29 01:50:00,
2013-09-28 20:55:00,50.7,46.4,29.47,WSW,248,0.0,0.0,85,0.00,,,-99.99,VWS V12.07,2013-09-29 01:55:00,
2013-09-28 21:00:00,50.5,46.5,29.47,WSW,248,0.0,0.0,86,0.00,,,-99.99,VWS V12.07,2013-09-29 02:00:00,
2013-09-28 21:05:00,50.5,46.5,29.47,WSW,248,0.0,0.0,86,0.00,,,-99.99,VWS V12.07,2013-09-29 02:05:00,
2013-09-28 21:10:00,50.5,46.5,29.47,WSW,248,0.0,0.0,86,0.00,,,-99.99,VWS V12.07,2013-09-29 02:10:00,
2013-09-28 21:15:00,50.3,46.3,29.47,WSW,248,0.0,0.0,86,0.00,,,-99.99,VWS V12.07,2013-09-29 02:15:00,
2013-09-28 21:20:00,50.3,46.3,29.47,North,0,0.0,0.0,86,0.00,,,-99.99,VWS V12.07,2013-09-29 02:20:00,
2013-09-28 21:25:00,50.3,46.3,29.47,North,0,0.0,0.0,86,0.00,,,-99.99,VWS V12.07,2013-09-29 02:25:00,
2013-09-28 21:30:00,50.3,46.3,29.47,NNW,338,0.0,0.0,86,0.00,,,-99.99,VWS V12.07,2013-09-29 02:30:00,
2013-09-28 21:40:00,50.1,46.1,29.47,NNW,338,0.0,0.0,86,0.00,,,-99.99,VWS V12.07,2013-09-29 02:40:00,
2013-09-28 21:45:00,50.1,46.1,29.48,NNW,338,0.0,0.0,86,0.00,,,-99.99,VWS V12.07,2013-09-29 02:45:00,
2013-09-28 21:50:00,50.1,46.1,29.48,NNW,338,0.0,0.0,86,0.00,,,-99.99,VWS V12.07,2013-09-29 02:50:00,
2013-09-28 22:00:00,50.3,46.6,29.48,West,270,0.0,0.0,87,0.00,,,-99.99,VWS V12.07,2013-09-29 03:00:00,
2013-09-28 22:05:00,50.1,46.4,29.48,West,270,1.7,1.7,87,0.00,,,-99.99,VWS V12.07,2013-09-29 03:05:00,
2013-09-28 22:10:00,50.3,46.6,29.48,WSW,248,0.0,1.7,87,0.00,,,-99.99,VWS V12.07,2013-09-29 03:10:00,
2013-09-28 22:15:00,50.3,46.6,29.48,West,270,0.0,1.7,87,0.00,,,-99.99,VWS V12.07,2013-09-29 03:15:00,
2013-09-28 22:25:00,50.3,46.6,29.48,SW,225,0.0,0.0,87,0.00,,,-99.99,VWS V12.07,2013-09-29 03:25:00,
2013-09-28 22:30:00,50.3,46.9,29.49,West,270,0.0,0.0,88,0.00,,,-99.99,VWS V12.07,2013-09-29 03:30:00,
2013-09-28 22:40:00,50.3,46.9,29.48,West,270,0.0,0.0,88,0.00,,,-99.99,VWS V12.07,2013-09-29 03:40:00,
2013-09-28 22:45:00,50.3,46.9,29.49,SW,225,0.0,0.0,88,0.00,,,-99.99,VWS V12.07,2013-09-29 03:45:00,
2013-09-28 22:50:00,50.1,46.7,29.49,North,0,0.0,0.0,88,0.00,,,-99.99,VWS V12.07,2013-09-29 03:50:00,
2013-09-28 22:55:00,50.1,46.7,29.49,NNW,338,0.0,0.0,88,0.00,,,-99.99,VWS V12.07,2013-09-29 03:55:00,
2013-09-28 23:00:00,50.1,46.7,29.49,NNW,338,0.0,0.0,88,0.00,,,-99.99,VWS V12.07,2013-09-29 04:00:00,
2013-09-28 23:05:00,50.1,46.7,29.49,SW,225,0.0,0.0,88,0.00,,,-99.99,VWS V12.07,2013-09-29 04:05:00,
2013-09-28 23:10:00,50.0,46.6,29.50,SW,225,0.0,0.0,88,0.00,,,-99.99,VWS V12.07,2013-09-29 04:10:00,
2013-09-28 23:15:00,50.0,46.6,29.50,WSW,248,0.0,0.0,88,0.00,,,-99.99,VWS V12.07,2013-09-29 04:15:00,
2013-09-28 23:20:00,49.8,46.4,29.50,WSW,248,0.0,0.0,88,0.00,,,-99.99,VWS V12.07,2013-09-29 04:20:00,
2013-09-28 23:25:00,49.8,46.4,29.50,NNE,22,0.0,0.0,88,0.00,,,-99.99,VWS V12.07,2013-09-29 04:25:00,
2013-09-28 23:30:00,49.8,46.4,29.50,ESE,112,0.0,0.0,88,0.00,,,-99.99,VWS V12.07,2013-09-29 04:30:00,
2013-09-28 23:35:00,49.8,46.4,29.50,ESE,112,0.0,0.0,88,0.00,,,-99.99,VWS V12.07,2013-09-29 04:35:00,
2013-09-28 23:40:00,49.8,46.4,29.50,ESE,112,0.0,0.0,88,0.00,,,-99.99,VWS V12.07,2013-09-29 04:40:00,
2013-09-28 23:45:00,49.8,46.4,29.50,ESE,112,0.0,0.0,88,0.00,,,-99.99,VWS V12.07,2013-09-29 04:45:00,
2013-09-28 23:50:00,49.8,46.4,29.50,ESE,112,0.0,0.0,88,0.00,,,-99.99,VWS V12.07,2013-09-29 04:50:00,
2013-09-28 23:55:00,49.8,46.4,29.50,SW,225,0.0,0.0,88,0.00,,,-99.99,VWS V12.07,2013-09-29 04:55:00,